sensor_id;sensor_type;location;lat;lon;timestamp;P1;durP1;ratioP1;P2;durP2;ratioP2
22318;SDS011;11327;52.334;9.506;2022-11-14T00:02:36;64.55;;;30.92;;
22318;SDS011;11327;52.334;9.506;2022-11-14T00:05:58;66.12;;;31.05;;
22318;SDS011;11327;52.334;9.506;2022-11-14T00:09:19;60.65;;;29.10;;
22318;SDS011;11327;52.334;9.506;2022-11-14T00:12:40;60.78;;;29.50;;
22318;SDS011;11327;52.334;9.506;2022-11-14T00:16:01;61.08;;;28.80;;
22318;SDS011;11327;52.334;9.506;2022-11-14T00:19:22;59.58;;;27.67;;
22318;SDS011;11327;52.334;9.506;2022-11-14T00:22:43;61.92;;;29.02;;
22318;SDS011;11327;52.334;9.506;2022-11-14T00:26:04;58.85;;;29.00;;
22318;SDS011;11327;52.334;9.506;2022-11-14T00:29:25;61.65;;;29.15;;
22318;SDS011;11327;52.334;9.506;2022-11-14T00:32:46;55.20;;;28.75;;
22318;SDS011;11327;52.334;9.506;2022-11-14T00:36:07;62.03;;;28.23;;
22318;SDS011;11327;52.334;9.506;2022-11-14T00:39:28;57.38;;;28.20;;
22318;SDS011;11327;52.334;9.506;2022-11-14T00:42:49;55.95;;;27.75;;
22318;SDS011;11327;52.334;9.506;2022-11-14T00:46:10;60.83;;;28.77;;
22318;SDS011;11327;52.334;9.506;2022-11-14T00:49:31;59.35;;;29.40;;
22318;SDS011;11327;52.334;9.506;2022-11-14T00:52:52;62.78;;;29.92;;
22318;SDS011;11327;52.334;9.506;2022-11-14T00:56:13;59.30;;;30.15;;
22318;SDS011;11327;52.334;9.506;2022-11-14T00:59:35;59.58;;;29.80;;
22318;SDS011;11327;52.334;9.506;2022-11-14T01:02:56;62.73;;;28.90;;
22318;SDS011;11327;52.334;9.506;2022-11-14T01:06:17;62.60;;;28.60;;
22318;SDS011;11327;52.334;9.506;2022-11-14T01:09:39;58.73;;;27.87;;
22318;SDS011;11327;52.334;9.506;2022-11-14T01:13:00;59.77;;;27.80;;
22318;SDS011;11327;52.334;9.506;2022-11-14T01:16:21;58.33;;;29.15;;
22318;SDS011;11327;52.334;9.506;2022-11-14T01:19:42;65.65;;;30.50;;
22318;SDS011;11327;52.334;9.506;2022-11-14T01:23:03;61.80;;;28.90;;
22318;SDS011;11327;52.334;9.506;2022-11-14T01:26:24;64.47;;;29.02;;
22318;SDS011;11327;52.334;9.506;2022-11-14T01:29:45;57.98;;;27.58;;
22318;SDS011;11327;52.334;9.506;2022-11-14T01:33:06;65.67;;;30.35;;
22318;SDS011;11327;52.334;9.506;2022-11-14T01:36:27;58.35;;;28.25;;
22318;SDS011;11327;52.334;9.506;2022-11-14T01:39:48;64.37;;;30.97;;
22318;SDS011;11327;52.334;9.506;2022-11-14T01:46:40;61.80;;;30.05;;
22318;SDS011;11327;52.334;9.506;2022-11-14T01:50:04;59.83;;;29.42;;
22318;SDS011;11327;52.334;9.506;2022-11-14T01:53:26;65.00;;;30.90;;
22318;SDS011;11327;52.334;9.506;2022-11-14T01:56:49;62.30;;;29.65;;
22318;SDS011;11327;52.334;9.506;2022-11-14T02:00:12;61.85;;;31.15;;
22318;SDS011;11327;52.334;9.506;2022-11-14T02:03:35;63.08;;;31.05;;
22318;SDS011;11327;52.334;9.506;2022-11-14T02:06:59;66.35;;;32.60;;
22318;SDS011;11327;52.334;9.506;2022-11-14T02:10:21;69.30;;;33.02;;
22318;SDS011;11327;52.334;9.506;2022-11-14T02:13:42;67.00;;;32.25;;
22318;SDS011;11327;52.334;9.506;2022-11-14T02:17:03;70.52;;;32.83;;
22318;SDS011;11327;52.334;9.506;2022-11-14T02:20:25;72.95;;;35.15;;
22318;SDS011;11327;52.334;9.506;2022-11-14T02:23:48;75.72;;;35.80;;
22318;SDS011;11327;52.334;9.506;2022-11-14T02:27:09;79.95;;;37.88;;
22318;SDS011;11327;52.334;9.506;2022-11-14T02:30:31;83.20;;;38.92;;
22318;SDS011;11327;52.334;9.506;2022-11-14T02:33:53;79.10;;;36.75;;
22318;SDS011;11327;52.334;9.506;2022-11-14T02:37:14;71.28;;;35.50;;
22318;SDS011;11327;52.334;9.506;2022-11-14T02:40:35;73.45;;;36.15;;
22318;SDS011;11327;52.334;9.506;2022-11-14T02:43:56;73.92;;;35.95;;
22318;SDS011;11327;52.334;9.506;2022-11-14T02:47:17;71.25;;;34.58;;
22318;SDS011;11327;52.334;9.506;2022-11-14T02:50:38;71.07;;;35.17;;
22318;SDS011;11327;52.334;9.506;2022-11-14T02:53:59;65.20;;;34.20;;
22318;SDS011;11327;52.334;9.506;2022-11-14T02:57:20;65.57;;;33.58;;
22318;SDS011;11327;52.334;9.506;2022-11-14T03:00:41;70.15;;;34.40;;
22318;SDS011;11327;52.334;9.506;2022-11-14T03:04:02;66.80;;;32.53;;
22318;SDS011;11327;52.334;9.506;2022-11-14T03:07:23;61.60;;;30.65;;
22318;SDS011;11327;52.334;9.506;2022-11-14T03:10:44;60.40;;;30.92;;
22318;SDS011;11327;52.334;9.506;2022-11-14T03:14:05;60.48;;;30.57;;
22318;SDS011;11327;52.334;9.506;2022-11-14T03:17:29;63.08;;;32.13;;
22318;SDS011;11327;52.334;9.506;2022-11-14T03:20:53;59.30;;;30.43;;
22318;SDS011;11327;52.334;9.506;2022-11-14T03:24:14;58.60;;;29.55;;
22318;SDS011;11327;52.334;9.506;2022-11-14T03:27:35;59.85;;;28.75;;
22318;SDS011;11327;52.334;9.506;2022-11-14T03:30:56;60.35;;;29.35;;
22318;SDS011;11327;52.334;9.506;2022-11-14T03:34:17;58.38;;;28.87;;
22318;SDS011;11327;52.334;9.506;2022-11-14T03:37:38;58.92;;;28.12;;
22318;SDS011;11327;52.334;9.506;2022-11-14T03:40:59;59.03;;;28.80;;
22318;SDS011;11327;52.334;9.506;2022-11-14T03:44:21;60.30;;;28.90;;
22318;SDS011;11327;52.334;9.506;2022-11-14T03:47:42;60.78;;;28.15;;
22318;SDS011;11327;52.334;9.506;2022-11-14T03:51:03;60.60;;;28.52;;
22318;SDS011;11327;52.334;9.506;2022-11-14T03:54:24;60.88;;;29.15;;
22318;SDS011;11327;52.334;9.506;2022-11-14T03:57:45;62.73;;;29.35;;
22318;SDS011;11327;52.334;9.506;2022-11-14T04:01:06;59.35;;;29.10;;
22318;SDS011;11327;52.334;9.506;2022-11-14T04:04:27;62.33;;;29.98;;
22318;SDS011;11327;52.334;9.506;2022-11-14T04:07:48;61.83;;;29.77;;
22318;SDS011;11327;52.334;9.506;2022-11-14T04:11:09;55.43;;;28.32;;
22318;SDS011;11327;52.334;9.506;2022-11-14T04:14:30;55.98;;;27.52;;
22318;SDS011;11327;52.334;9.506;2022-11-14T04:17:51;59.95;;;28.77;;
22318;SDS011;11327;52.334;9.506;2022-11-14T04:21:12;59.03;;;28.70;;
22318;SDS011;11327;52.334;9.506;2022-11-14T04:24:33;56.83;;;28.90;;
22318;SDS011;11327;52.334;9.506;2022-11-14T04:27:55;59.13;;;28.75;;
22318;SDS011;11327;52.334;9.506;2022-11-14T04:31:15;58.33;;;28.83;;
22318;SDS011;11327;52.334;9.506;2022-11-14T04:34:36;57.48;;;28.57;;
22318;SDS011;11327;52.334;9.506;2022-11-14T04:37:58;58.25;;;28.67;;
22318;SDS011;11327;52.334;9.506;2022-11-14T04:41:19;54.73;;;27.58;;
22318;SDS011;11327;52.334;9.506;2022-11-14T04:44:40;55.33;;;28.75;;
22318;SDS011;11327;52.334;9.506;2022-11-14T04:48:01;56.60;;;27.70;;
22318;SDS011;11327;52.334;9.506;2022-11-14T04:51:22;55.25;;;27.60;;
22318;SDS011;11327;52.334;9.506;2022-11-14T04:54:43;56.58;;;26.87;;
22318;SDS011;11327;52.334;9.506;2022-11-14T04:58:04;56.83;;;27.70;;
22318;SDS011;11327;52.334;9.506;2022-11-14T05:01:25;57.40;;;29.05;;
22318;SDS011;11327;52.334;9.506;2022-11-14T05:04:46;56.95;;;28.52;;
22318;SDS011;11327;52.334;9.506;2022-11-14T05:08:07;59.08;;;29.48;;
22318;SDS011;11327;52.334;9.506;2022-11-14T05:11:28;63.10;;;30.50;;
22318;SDS011;11327;52.334;9.506;2022-11-14T05:14:49;57.33;;;28.62;;
22318;SDS011;11327;52.334;9.506;2022-11-14T05:18:11;55.17;;;28.27;;
22318;SDS011;11327;52.334;9.506;2022-11-14T05:21:32;58.60;;;29.82;;
22318;SDS011;11327;52.334;9.506;2022-11-14T05:24:53;56.75;;;28.12;;
22318;SDS011;11327;52.334;9.506;2022-11-14T05:28:14;58.28;;;29.30;;
22318;SDS011;11327;52.334;9.506;2022-11-14T05:31:34;55.85;;;28.12;;
22318;SDS011;11327;52.334;9.506;2022-11-14T05:34:55;58.90;;;28.65;;
22318;SDS011;11327;52.334;9.506;2022-11-14T05:38:16;56.00;;;28.85;;
22318;SDS011;11327;52.334;9.506;2022-11-14T05:41:37;59.23;;;29.25;;
22318;SDS011;11327;52.334;9.506;2022-11-14T05:44:58;61.15;;;29.95;;
22318;SDS011;11327;52.334;9.506;2022-11-14T05:48:19;58.48;;;28.95;;
22318;SDS011;11327;52.334;9.506;2022-11-14T05:51:40;57.73;;;28.12;;
22318;SDS011;11327;52.334;9.506;2022-11-14T05:55:01;56.70;;;28.32;;
22318;SDS011;11327;52.334;9.506;2022-11-14T05:58:22;56.88;;;27.93;;
22318;SDS011;11327;52.334;9.506;2022-11-14T06:01:43;59.03;;;27.37;;
22318;SDS011;11327;52.334;9.506;2022-11-14T06:05:04;58.10;;;27.73;;
22318;SDS011;11327;52.334;9.506;2022-11-14T06:08:26;59.75;;;28.35;;
22318;SDS011;11327;52.334;9.506;2022-11-14T06:11:48;56.77;;;27.90;;
22318;SDS011;11327;52.334;9.506;2022-11-14T06:15:09;58.38;;;28.17;;
22318;SDS011;11327;52.334;9.506;2022-11-14T06:18:32;60.40;;;28.40;;
22318;SDS011;11327;52.334;9.506;2022-11-14T06:21:53;56.75;;;27.62;;
22318;SDS011;11327;52.334;9.506;2022-11-14T06:25:14;57.17;;;27.40;;
22318;SDS011;11327;52.334;9.506;2022-11-14T06:28:35;52.85;;;26.75;;
22318;SDS011;11327;52.334;9.506;2022-11-14T06:31:56;55.35;;;26.95;;
22318;SDS011;11327;52.334;9.506;2022-11-14T06:35:17;53.98;;;26.45;;
22318;SDS011;11327;52.334;9.506;2022-11-14T06:38:38;54.00;;;27.15;;
22318;SDS011;11327;52.334;9.506;2022-11-14T06:42:00;54.30;;;27.67;;
22318;SDS011;11327;52.334;9.506;2022-11-14T06:45:21;55.03;;;27.17;;
22318;SDS011;11327;52.334;9.506;2022-11-14T06:48:44;56.10;;;27.22;;
22318;SDS011;11327;52.334;9.506;2022-11-14T06:52:06;54.18;;;28.00;;
22318;SDS011;11327;52.334;9.506;2022-11-14T06:55:27;51.33;;;25.68;;
22318;SDS011;11327;52.334;9.506;2022-11-14T06:58:48;50.60;;;24.72;;
22318;SDS011;11327;52.334;9.506;2022-11-14T07:02:13;54.03;;;25.20;;
22318;SDS011;11327;52.334;9.506;2022-11-14T07:05:33;50.52;;;25.77;;
22318;SDS011;11327;52.334;9.506;2022-11-14T07:08:55;50.15;;;24.82;;
22318;SDS011;11327;52.334;9.506;2022-11-14T07:12:17;50.33;;;24.90;;
22318;SDS011;11327;52.334;9.506;2022-11-14T07:15:38;52.95;;;26.73;;
22318;SDS011;11327;52.334;9.506;2022-11-14T07:18:58;50.43;;;24.87;;
22318;SDS011;11327;52.334;9.506;2022-11-14T07:22:20;50.35;;;25.12;;
22318;SDS011;11327;52.334;9.506;2022-11-14T07:25:41;50.30;;;25.43;;
22318;SDS011;11327;52.334;9.506;2022-11-14T07:29:02;49.90;;;24.90;;
22318;SDS011;11327;52.334;9.506;2022-11-14T07:32:23;53.15;;;25.97;;
22318;SDS011;11327;52.334;9.506;2022-11-14T07:35:44;54.03;;;25.80;;
22318;SDS011;11327;52.334;9.506;2022-11-14T07:39:05;50.73;;;24.50;;
22318;SDS011;11327;52.334;9.506;2022-11-14T07:42:27;50.05;;;24.37;;
22318;SDS011;11327;52.334;9.506;2022-11-14T07:45:49;47.98;;;24.92;;
22318;SDS011;11327;52.334;9.506;2022-11-14T07:49:10;49.25;;;23.67;;
22318;SDS011;11327;52.334;9.506;2022-11-14T07:52:31;48.87;;;24.92;;
22318;SDS011;11327;52.334;9.506;2022-11-14T07:55:53;51.08;;;24.72;;
22318;SDS011;11327;52.334;9.506;2022-11-14T07:59:14;54.95;;;25.65;;
22318;SDS011;11327;52.334;9.506;2022-11-14T08:02:35;54.70;;;25.80;;
22318;SDS011;11327;52.334;9.506;2022-11-14T08:06:03;52.30;;;25.97;;
22318;SDS011;11327;52.334;9.506;2022-11-14T08:09:23;51.77;;;25.48;;
22318;SDS011;11327;52.334;9.506;2022-11-14T08:12:44;53.98;;;26.12;;
22318;SDS011;11327;52.334;9.506;2022-11-14T08:16:05;53.00;;;26.23;;
22318;SDS011;11327;52.334;9.506;2022-11-14T08:19:28;58.90;;;27.27;;
22318;SDS011;11327;52.334;9.506;2022-11-14T08:22:48;56.10;;;26.30;;
22318;SDS011;11327;52.334;9.506;2022-11-14T08:26:09;55.70;;;26.42;;
22318;SDS011;11327;52.334;9.506;2022-11-14T08:29:31;53.40;;;26.00;;
22318;SDS011;11327;52.334;9.506;2022-11-14T08:32:52;53.63;;;26.52;;
22318;SDS011;11327;52.334;9.506;2022-11-14T08:36:13;55.48;;;26.37;;
22318;SDS011;11327;52.334;9.506;2022-11-14T08:39:34;50.60;;;25.40;;
22318;SDS011;11327;52.334;9.506;2022-11-14T08:42:59;53.17;;;25.45;;
22318;SDS011;11327;52.334;9.506;2022-11-14T08:46:21;48.03;;;24.03;;
22318;SDS011;11327;52.334;9.506;2022-11-14T08:49:42;49.70;;;24.55;;
22318;SDS011;11327;52.334;9.506;2022-11-14T08:53:03;48.92;;;23.57;;
22318;SDS011;11327;52.334;9.506;2022-11-14T08:56:24;48.35;;;24.82;;
22318;SDS011;11327;52.334;9.506;2022-11-14T08:59:44;50.43;;;24.75;;
22318;SDS011;11327;52.334;9.506;2022-11-14T09:03:06;49.33;;;25.15;;
22318;SDS011;11327;52.334;9.506;2022-11-14T09:06:28;47.58;;;24.43;;
22318;SDS011;11327;52.334;9.506;2022-11-14T09:09:49;49.45;;;24.35;;
22318;SDS011;11327;52.334;9.506;2022-11-14T09:13:10;52.90;;;26.42;;
22318;SDS011;11327;52.334;9.506;2022-11-14T09:16:31;53.78;;;25.85;;
22318;SDS011;11327;52.334;9.506;2022-11-14T09:19:53;52.15;;;25.95;;
22318;SDS011;11327;52.334;9.506;2022-11-14T09:23:15;46.92;;;25.55;;
22318;SDS011;11327;52.334;9.506;2022-11-14T09:26:36;45.63;;;24.02;;
22318;SDS011;11327;52.334;9.506;2022-11-14T09:29:57;46.98;;;24.77;;
22318;SDS011;11327;52.334;9.506;2022-11-14T09:33:17;47.93;;;24.80;;
22318;SDS011;11327;52.334;9.506;2022-11-14T09:36:38;44.33;;;23.40;;
22318;SDS011;11327;52.334;9.506;2022-11-14T09:39:59;45.23;;;24.23;;
22318;SDS011;11327;52.334;9.506;2022-11-14T09:43:26;45.23;;;24.05;;
22318;SDS011;11327;52.334;9.506;2022-11-14T09:46:46;45.50;;;24.43;;
22318;SDS011;11327;52.334;9.506;2022-11-14T09:50:15;48.08;;;25.40;;
22318;SDS011;11327;52.334;9.506;2022-11-14T09:53:49;44.48;;;24.02;;
22318;SDS011;11327;52.334;9.506;2022-11-14T09:57:13;45.58;;;23.85;;
22318;SDS011;11327;52.334;9.506;2022-11-14T10:00:44;46.37;;;24.27;;
22318;SDS011;11327;52.334;9.506;2022-11-14T10:04:21;43.42;;;23.77;;
22318;SDS011;11327;52.334;9.506;2022-11-14T10:11:12;46.45;;;24.37;;
22318;SDS011;11327;52.334;9.506;2022-11-14T10:21:55;44.90;;;24.20;;
22318;SDS011;11327;52.334;9.506;2022-11-14T10:25:23;40.88;;;22.62;;
22318;SDS011;11327;52.334;9.506;2022-11-14T10:28:52;39.63;;;22.40;;
22318;SDS011;11327;52.334;9.506;2022-11-14T10:35:54;44.05;;;24.15;;
22318;SDS011;11327;52.334;9.506;2022-11-14T10:39:18;39.70;;;23.30;;
22318;SDS011;11327;52.334;9.506;2022-11-14T10:42:53;41.77;;;23.75;;
22318;SDS011;11327;52.334;9.506;2022-11-14T10:49:36;41.92;;;22.87;;
22318;SDS011;11327;52.334;9.506;2022-11-14T10:52:59;39.38;;;22.42;;
22318;SDS011;11327;52.334;9.506;2022-11-14T10:56:22;40.25;;;22.32;;
22318;SDS011;11327;52.334;9.506;2022-11-14T10:59:43;41.63;;;23.70;;
22318;SDS011;11327;52.334;9.506;2022-11-14T11:03:04;39.33;;;22.35;;
22318;SDS011;11327;52.334;9.506;2022-11-14T11:06:27;43.15;;;22.87;;
22318;SDS011;11327;52.334;9.506;2022-11-14T11:09:48;38.50;;;22.22;;
22318;SDS011;11327;52.334;9.506;2022-11-14T11:13:33;37.73;;;22.60;;
22318;SDS011;11327;52.334;9.506;2022-11-14T11:17:13;36.90;;;22.07;;
22318;SDS011;11327;52.334;9.506;2022-11-14T11:20:41;40.37;;;23.00;;
22318;SDS011;11327;52.334;9.506;2022-11-14T11:28:10;38.50;;;22.35;;
22318;SDS011;11327;52.334;9.506;2022-11-14T11:35:15;35.73;;;20.80;;
22318;SDS011;11327;52.334;9.506;2022-11-14T11:38:36;35.95;;;21.80;;
22318;SDS011;11327;52.334;9.506;2022-11-14T11:41:58;37.53;;;21.77;;
22318;SDS011;11327;52.334;9.506;2022-11-14T11:45:22;36.13;;;22.15;;
22318;SDS011;11327;52.334;9.506;2022-11-14T11:48:43;37.23;;;22.05;;
22318;SDS011;11327;52.334;9.506;2022-11-14T11:52:18;37.20;;;21.68;;
22318;SDS011;11327;52.334;9.506;2022-11-14T11:55:43;35.40;;;21.77;;
22318;SDS011;11327;52.334;9.506;2022-11-14T12:02:52;30.35;;;19.32;;
22318;SDS011;11327;52.334;9.506;2022-11-14T12:06:15;32.67;;;20.85;;
22318;SDS011;11327;52.334;9.506;2022-11-14T12:09:48;33.58;;;21.40;;
22318;SDS011;11327;52.334;9.506;2022-11-14T12:28:18;29.75;;;19.70;;
22318;SDS011;11327;52.334;9.506;2022-11-14T12:31:39;31.70;;;19.80;;
22318;SDS011;11327;52.334;9.506;2022-11-14T12:35:02;32.05;;;20.62;;
22318;SDS011;11327;52.334;9.506;2022-11-14T12:38:27;31.33;;;19.52;;
22318;SDS011;11327;52.334;9.506;2022-11-14T12:41:52;30.92;;;19.73;;
22318;SDS011;11327;52.334;9.506;2022-11-14T12:49:01;29.05;;;18.62;;
22318;SDS011;11327;52.334;9.506;2022-11-14T12:59:53;27.50;;;17.92;;
22318;SDS011;11327;52.334;9.506;2022-11-14T13:10:49;29.67;;;19.10;;
22318;SDS011;11327;52.334;9.506;2022-11-14T13:14:10;32.15;;;20.00;;
22318;SDS011;11327;52.334;9.506;2022-11-14T13:17:58;29.30;;;19.27;;
22318;SDS011;11327;52.334;9.506;2022-11-14T13:21:33;30.75;;;19.60;;
22318;SDS011;11327;52.334;9.506;2022-11-14T13:32:11;29.35;;;20.00;;
22318;SDS011;11327;52.334;9.506;2022-11-14T13:35:36;30.88;;;20.23;;
22318;SDS011;11327;52.334;9.506;2022-11-14T13:39:25;29.67;;;19.75;;
22318;SDS011;11327;52.334;9.506;2022-11-14T13:43:15;31.35;;;20.05;;
22318;SDS011;11327;52.334;9.506;2022-11-14T13:50:18;30.17;;;20.17;;
22318;SDS011;11327;52.334;9.506;2022-11-14T13:53:41;34.20;;;21.10;;
22318;SDS011;11327;52.334;9.506;2022-11-14T14:00:49;32.60;;;20.37;;
22318;SDS011;11327;52.334;9.506;2022-11-14T14:04:36;31.57;;;20.37;;
22318;SDS011;11327;52.334;9.506;2022-11-14T14:15:33;34.90;;;22.00;;
22318;SDS011;11327;52.334;9.506;2022-11-14T14:19:03;33.45;;;21.80;;
22318;SDS011;11327;52.334;9.506;2022-11-14T14:26:18;34.03;;;22.00;;
22318;SDS011;11327;52.334;9.506;2022-11-14T14:33:19;35.10;;;22.80;;
22318;SDS011;11327;52.334;9.506;2022-11-14T14:36:39;34.00;;;22.42;;
22318;SDS011;11327;52.334;9.506;2022-11-14T14:40:05;36.60;;;23.15;;
22318;SDS011;11327;52.334;9.506;2022-11-14T14:43:31;36.58;;;23.55;;
22318;SDS011;11327;52.334;9.506;2022-11-14T14:46:53;38.90;;;24.05;;
22318;SDS011;11327;52.334;9.506;2022-11-14T14:50:15;37.50;;;23.38;;
22318;SDS011;11327;52.334;9.506;2022-11-14T14:53:39;41.35;;;25.80;;
22318;SDS011;11327;52.334;9.506;2022-11-14T14:57:03;45.05;;;26.23;;
22318;SDS011;11327;52.334;9.506;2022-11-14T15:00:25;41.90;;;25.97;;
22318;SDS011;11327;52.334;9.506;2022-11-14T15:03:47;44.35;;;28.35;;
22318;SDS011;11327;52.334;9.506;2022-11-14T15:07:22;42.05;;;25.90;;
22318;SDS011;11327;52.334;9.506;2022-11-14T15:10:40;43.02;;;27.37;;
22318;SDS011;11327;52.334;9.506;2022-11-14T15:14:03;43.98;;;27.93;;
22318;SDS011;11327;52.334;9.506;2022-11-14T15:17:24;42.75;;;26.65;;
22318;SDS011;11327;52.334;9.506;2022-11-14T15:21:04;44.27;;;26.40;;
22318;SDS011;11327;52.334;9.506;2022-11-14T15:27:43;43.50;;;27.17;;
22318;SDS011;11327;52.334;9.506;2022-11-14T15:31:05;42.55;;;27.48;;
22318;SDS011;11327;52.334;9.506;2022-11-14T15:34:35;45.08;;;27.30;;
22318;SDS011;11327;52.334;9.506;2022-11-14T15:41:33;45.12;;;28.55;;
22318;SDS011;11327;52.334;9.506;2022-11-14T15:44:54;44.35;;;28.25;;
22318;SDS011;11327;52.334;9.506;2022-11-14T15:48:17;45.78;;;28.40;;
22318;SDS011;11327;52.334;9.506;2022-11-14T15:51:45;44.58;;;27.50;;
22318;SDS011;11327;52.334;9.506;2022-11-14T15:55:18;45.85;;;27.95;;
22318;SDS011;11327;52.334;9.506;2022-11-14T15:58:41;48.78;;;29.42;;
22318;SDS011;11327;52.334;9.506;2022-11-14T16:05:38;51.55;;;29.85;;
22318;SDS011;11327;52.334;9.506;2022-11-14T16:08:59;50.50;;;30.70;;
22318;SDS011;11327;52.334;9.506;2022-11-14T16:12:20;46.90;;;29.18;;
22318;SDS011;11327;52.334;9.506;2022-11-14T16:15:41;50.73;;;30.37;;
22318;SDS011;11327;52.334;9.506;2022-11-14T16:19:03;49.63;;;30.55;;
22318;SDS011;11327;52.334;9.506;2022-11-14T16:22:24;55.23;;;32.25;;
22318;SDS011;11327;52.334;9.506;2022-11-14T16:25:45;50.52;;;30.77;;
22318;SDS011;11327;52.334;9.506;2022-11-14T16:29:08;49.93;;;31.33;;
22318;SDS011;11327;52.334;9.506;2022-11-14T16:32:29;52.23;;;31.60;;
22318;SDS011;11327;52.334;9.506;2022-11-14T16:35:50;52.65;;;31.70;;
22318;SDS011;11327;52.334;9.506;2022-11-14T16:39:11;51.37;;;30.80;;
22318;SDS011;11327;52.334;9.506;2022-11-14T16:42:33;51.37;;;30.82;;
22318;SDS011;11327;52.334;9.506;2022-11-14T16:45:54;54.42;;;34.03;;
22318;SDS011;11327;52.334;9.506;2022-11-14T16:49:15;68.10;;;40.67;;
22318;SDS011;11327;52.334;9.506;2022-11-14T16:52:37;63.98;;;38.20;;
22318;SDS011;11327;52.334;9.506;2022-11-14T16:55:58;53.05;;;34.43;;
22318;SDS011;11327;52.334;9.506;2022-11-14T16:59:19;54.98;;;32.45;;
22318;SDS011;11327;52.334;9.506;2022-11-14T17:02:40;53.13;;;34.05;;
22318;SDS011;11327;52.334;9.506;2022-11-14T17:06:06;60.80;;;37.90;;
22318;SDS011;11327;52.334;9.506;2022-11-14T17:09:26;51.85;;;31.73;;
22318;SDS011;11327;52.334;9.506;2022-11-14T17:12:47;47.15;;;29.90;;
22318;SDS011;11327;52.334;9.506;2022-11-14T17:16:08;50.43;;;30.23;;
22318;SDS011;11327;52.334;9.506;2022-11-14T17:19:29;47.83;;;28.05;;
22318;SDS011;11327;52.334;9.506;2022-11-14T17:22:50;52.45;;;34.25;;
22318;SDS011;11327;52.334;9.506;2022-11-14T17:26:11;52.03;;;31.15;;
22318;SDS011;11327;52.334;9.506;2022-11-14T17:29:33;52.20;;;33.33;;
22318;SDS011;11327;52.334;9.506;2022-11-14T17:32:54;50.60;;;31.50;;
22318;SDS011;11327;52.334;9.506;2022-11-14T17:36:15;50.55;;;31.75;;
22318;SDS011;11327;52.334;9.506;2022-11-14T17:39:37;49.38;;;30.57;;
22318;SDS011;11327;52.334;9.506;2022-11-14T17:42:57;49.75;;;28.40;;
22318;SDS011;11327;52.334;9.506;2022-11-14T17:46:18;47.90;;;28.10;;
22318;SDS011;11327;52.334;9.506;2022-11-14T17:49:39;59.55;;;36.20;;
22318;SDS011;11327;52.334;9.506;2022-11-14T17:53:00;60.50;;;38.60;;
22318;SDS011;11327;52.334;9.506;2022-11-14T17:56:22;58.48;;;34.25;;
22318;SDS011;11327;52.334;9.506;2022-11-14T17:59:45;55.50;;;32.48;;
22318;SDS011;11327;52.334;9.506;2022-11-14T18:03:06;52.55;;;32.33;;
22318;SDS011;11327;52.334;9.506;2022-11-14T18:06:27;54.63;;;32.67;;
22318;SDS011;11327;52.334;9.506;2022-11-14T18:09:48;50.45;;;31.30;;
22318;SDS011;11327;52.334;9.506;2022-11-14T18:13:09;50.17;;;29.52;;
22318;SDS011;11327;52.334;9.506;2022-11-14T18:16:30;48.98;;;29.27;;
22318;SDS011;11327;52.334;9.506;2022-11-14T18:19:51;51.13;;;30.43;;
22318;SDS011;11327;52.334;9.506;2022-11-14T18:23:12;46.75;;;28.92;;
22318;SDS011;11327;52.334;9.506;2022-11-14T18:26:33;54.40;;;33.05;;
22318;SDS011;11327;52.334;9.506;2022-11-14T18:29:54;47.90;;;28.52;;
22318;SDS011;11327;52.334;9.506;2022-11-14T18:33:15;47.30;;;29.20;;
22318;SDS011;11327;52.334;9.506;2022-11-14T18:36:36;52.27;;;30.62;;
22318;SDS011;11327;52.334;9.506;2022-11-14T18:39:57;49.45;;;29.77;;
22318;SDS011;11327;52.334;9.506;2022-11-14T18:43:18;50.65;;;29.25;;
22318;SDS011;11327;52.334;9.506;2022-11-14T18:46:39;51.20;;;30.15;;
22318;SDS011;11327;52.334;9.506;2022-11-14T18:50:00;52.27;;;30.20;;
22318;SDS011;11327;52.334;9.506;2022-11-14T18:53:21;49.90;;;30.35;;
22318;SDS011;11327;52.334;9.506;2022-11-14T18:56:43;50.28;;;28.95;;
22318;SDS011;11327;52.334;9.506;2022-11-14T19:00:05;51.15;;;29.32;;
22318;SDS011;11327;52.334;9.506;2022-11-14T19:03:27;49.05;;;28.85;;
22318;SDS011;11327;52.334;9.506;2022-11-14T19:06:49;50.23;;;29.63;;
22318;SDS011;11327;52.334;9.506;2022-11-14T19:10:10;50.40;;;29.15;;
22318;SDS011;11327;52.334;9.506;2022-11-14T19:13:31;47.48;;;28.42;;
22318;SDS011;11327;52.334;9.506;2022-11-14T19:16:52;48.35;;;28.65;;
22318;SDS011;11327;52.334;9.506;2022-11-14T19:20:13;48.33;;;28.35;;
22318;SDS011;11327;52.334;9.506;2022-11-14T19:23:34;46.68;;;27.00;;
22318;SDS011;11327;52.334;9.506;2022-11-14T19:26:55;45.65;;;27.65;;
22318;SDS011;11327;52.334;9.506;2022-11-14T19:30:16;45.12;;;27.48;;
22318;SDS011;11327;52.334;9.506;2022-11-14T19:33:38;48.23;;;28.47;;
22318;SDS011;11327;52.334;9.506;2022-11-14T19:37:00;43.52;;;26.45;;
22318;SDS011;11327;52.334;9.506;2022-11-14T19:40:21;45.10;;;26.57;;
22318;SDS011;11327;52.334;9.506;2022-11-14T19:43:42;46.70;;;27.75;;
22318;SDS011;11327;52.334;9.506;2022-11-14T19:47:04;47.35;;;27.75;;
22318;SDS011;11327;52.334;9.506;2022-11-14T19:50:25;43.58;;;26.35;;
22318;SDS011;11327;52.334;9.506;2022-11-14T19:53:46;42.27;;;26.65;;
22318;SDS011;11327;52.334;9.506;2022-11-14T19:57:07;39.33;;;24.52;;
22318;SDS011;11327;52.334;9.506;2022-11-14T20:00:28;40.33;;;24.05;;
22318;SDS011;11327;52.334;9.506;2022-11-14T20:03:54;37.83;;;22.40;;
22318;SDS011;11327;52.334;9.506;2022-11-14T20:07:14;36.23;;;22.45;;
22318;SDS011;11327;52.334;9.506;2022-11-14T20:10:35;36.83;;;22.87;;
22318;SDS011;11327;52.334;9.506;2022-11-14T20:13:58;35.55;;;22.20;;
22318;SDS011;11327;52.334;9.506;2022-11-14T20:17:20;33.95;;;21.73;;
22318;SDS011;11327;52.334;9.506;2022-11-14T20:20:41;35.95;;;22.62;;
22318;SDS011;11327;52.334;9.506;2022-11-14T20:24:02;35.73;;;22.67;;
22318;SDS011;11327;52.334;9.506;2022-11-14T20:27:23;35.80;;;21.70;;
22318;SDS011;11327;52.334;9.506;2022-11-14T20:30:44;35.35;;;21.75;;
22318;SDS011;11327;52.334;9.506;2022-11-14T20:34:05;35.60;;;22.05;;
22318;SDS011;11327;52.334;9.506;2022-11-14T20:37:26;34.70;;;22.25;;
22318;SDS011;11327;52.334;9.506;2022-11-14T20:40:52;35.03;;;22.60;;
22318;SDS011;11327;52.334;9.506;2022-11-14T20:44:16;34.75;;;21.33;;
22318;SDS011;11327;52.334;9.506;2022-11-14T20:47:38;34.63;;;21.42;;
22318;SDS011;11327;52.334;9.506;2022-11-14T20:51:00;33.15;;;20.68;;
22318;SDS011;11327;52.334;9.506;2022-11-14T20:54:32;29.67;;;19.40;;
22318;SDS011;11327;52.334;9.506;2022-11-14T20:57:53;31.50;;;20.43;;
22318;SDS011;11327;52.334;9.506;2022-11-14T21:01:14;30.43;;;20.32;;
22318;SDS011;11327;52.334;9.506;2022-11-14T21:04:35;32.13;;;20.50;;
22318;SDS011;11327;52.334;9.506;2022-11-14T21:07:56;33.40;;;21.23;;
22318;SDS011;11327;52.334;9.506;2022-11-14T21:11:17;36.88;;;22.35;;
22318;SDS011;11327;52.334;9.506;2022-11-14T21:14:38;32.05;;;20.97;;
22318;SDS011;11327;52.334;9.506;2022-11-14T21:17:59;33.65;;;22.32;;
22318;SDS011;11327;52.334;9.506;2022-11-14T21:21:21;30.10;;;18.80;;
22318;SDS011;11327;52.334;9.506;2022-11-14T21:24:43;26.30;;;17.37;;
22318;SDS011;11327;52.334;9.506;2022-11-14T21:28:04;26.90;;;17.42;;
22318;SDS011;11327;52.334;9.506;2022-11-14T21:31:29;24.77;;;16.42;;